Time;durP1;ratioP1;P1;durP2;ratioP2;P2;SDS_P1;SDS_P2;PMS_P1;PMS_P2;Temp;Humidity;BMP_temperature;BMP_pressure;BME280_temperature;BME280_humidity;BME280_pressure;Samples;Min_cycle;Max_cycle;Signal;HPM_P1;HPM_P2
2024/02/15 00:00:17;;;;;;;10.32;4.93;;;;;;;;;;5025353;28;20059;-66
2024/02/15 00:02:45;;;;;;;9.85;5.28;;;;;;;;;;5021505;28;20076;-65
2024/02/15 00:05:14;;;;;;;10.38;4.78;;;;;;;;;;5013393;28;20176;-67
2024/02/15 00:07:41;;;;;;;11.65;5.25;;;;;;;;;;5025608;28;20136;-67
2024/02/15 00:10:09;;;;;;;12.88;5.22;;;;;;;;;;5019396;28;20064;-67
2024/02/15 00:12:36;;;;;;;8.93;5.07;;;;;;;;;;5029602;28;20053;-69
2024/02/15 00:15:04;;;;;;;13.32;5.78;;;;;;;;;;5026937;28;20064;-67
2024/02/15 00:17:30;;;;;;;11.90;5.00;;;;;;;;;;5035491;28;20085;-66
2024/02/15 00:19:57;;;;;;;11.13;5.35;;;;;;;;;;5026625;28;20171;-69
2024/02/15 00:22:25;;;;;;;12.63;5.40;;;;;;;;;;5038282;28;20140;-69
2024/02/15 00:24:53;;;;;;;11.77;5.90;;;;;;;;;;5028408;28;20048;-67
2024/02/15 00:27:20;;;;;;;11.68;6.28;;;;;;;;;;5017588;28;20057;-68
2024/02/15 00:29:47;;;;;;;18.50;6.10;;;;;;;;;;5000821;28;20056;-73
2024/02/15 00:32:14;;;;;;;20.20;7.63;;;;;;;;;;5009562;28;20165;-65
2024/02/15 00:34:41;;;;;;;14.13;7.50;;;;;;;;;;5003459;28;20128;-68
2024/02/15 00:37:08;;;;;;;13.02;6.80;;;;;;;;;;5025615;28;20069;-68
2024/02/15 00:39:36;;;;;;;15.75;7.45;;;;;;;;;;5033818;28;20059;-67
2024/02/15 00:42:05;;;;;;;16.92;8.13;;;;;;;;;;5021156;28;20098;-66
2024/02/15 00:44:32;;;;;;;14.88;7.60;;;;;;;;;;5032693;28;20087;-66
2024/02/15 00:46:59;;;;;;;12.95;7.38;;;;;;;;;;5021841;28;20056;-68
2024/02/15 00:49:29;;;;;;;15.50;8.30;;;;;;;;;;5030512;28;20165;-67
2024/02/15 00:51:56;;;;;;;16.50;7.90;;;;;;;;;;5041445;28;20139;-69
2024/02/15 00:54:23;;;;;;;18.85;8.75;;;;;;;;;;5035879;28;20061;-68
2024/02/15 00:56:52;;;;;;;22.95;8.60;;;;;;;;;;5019018;28;20069;-68
2024/02/15 00:59:19;;;;;;;14.18;8.27;;;;;;;;;;5010400;28;20145;-68
2024/02/15 01:01:47;;;;;;;15.70;8.50;;;;;;;;;;4998919;28;20057;-68
2024/02/15 01:04:14;;;;;;;16.40;9.20;;;;;;;;;;5039206;28;20061;-69
2024/02/15 01:06:41;;;;;;;17.77;8.80;;;;;;;;;;5017646;28;20056;-66
2024/02/15 01:09:09;;;;;;;16.92;8.18;;;;;;;;;;5015372;28;20053;-68
2024/02/15 01:11:37;;;;;;;16.73;8.20;;;;;;;;;;5009831;28;20112;-65
2024/02/15 01:14:06;;;;;;;14.85;8.18;;;;;;;;;;5015280;28;20065;-68
2024/02/15 01:16:35;;;;;;;19.88;8.32;;;;;;;;;;5042481;28;20049;-65
2024/02/15 01:19:02;;;;;;;;;;;;;;;;;;5039039;28;20059;-69
2024/02/15 01:21:28;;;;;;;15.63;7.45;;;;;;;;;;5056025;28;19925;-68
2024/02/15 01:23:55;;;;;;;16.80;8.23;;;;;;;;;;5023401;28;20053;-67
2024/02/15 01:26:23;;;;;;;19.20;7.35;;;;;;;;;;5031732;28;20057;-66
2024/02/15 01:28:50;;;;;;;17.00;8.17;;;;;;;;;;5036204;28;20251;-69
2024/02/15 01:31:18;;;;;;;14.77;6.57;;;;;;;;;;5033538;28;20115;-69
2024/02/15 01:33:45;;;;;;;15.70;6.57;;;;;;;;;;5029712;28;20057;-67
2024/02/15 01:36:16;;;;;;;17.65;6.80;;;;;;;;;;5008631;28;20064;-68
2024/02/15 01:38:43;;;;;;;13.10;6.03;;;;;;;;;;5018301;28;20147;-65
2024/02/15 01:41:10;;;;;;;14.55;7.00;;;;;;;;;;5018403;28;20053;-68
2024/02/15 01:43:37;;;;;;;12.20;6.53;;;;;;;;;;5017185;28;20057;-70
2024/02/15 01:46:09;;;;;;;12.63;6.15;;;;;;;;;;5020714;28;20060;-67
2024/02/15 01:48:39;;;;;;;13.93;6.07;;;;;;;;;;5036001;28;20048;-68
2024/02/15 01:51:08;;;;;;;15.07;5.95;;;;;;;;;;5037985;28;20053;-67
2024/02/15 01:53:35;;;;;;;16.77;5.38;;;;;;;;;;5026202;28;20045;-67
2024/02/15 01:56:02;;;;;;;13.23;5.82;;;;;;;;;;5040598;28;20057;-67
2024/02/15 01:58:31;;;;;;;12.32;5.32;;;;;;;;;;5034364;28;20055;-65
2024/02/15 02:00:59;;;;;;;13.23;5.20;;;;;;;;;;5033028;28;20057;-66
2024/02/15 02:03:26;;;;;;;14.52;5.38;;;;;;;;;;5028403;28;20056;-65
2024/02/15 02:05:55;;;;;;;12.48;5.40;;;;;;;;;;5004254;28;20136;-68
2024/02/15 02:08:22;;;;;;;;;;;;;;;;;;5017549;28;20057;-66
2024/02/15 02:10:49;;;;;;;11.50;5.43;;;;;;;;;;5014490;28;19925;-67
2024/02/15 02:13:15;;;;;;;11.73;5.65;;;;;;;;;;5015329;28;20079;-68
2024/02/15 02:15:42;;;;;;;14.48;5.68;;;;;;;;;;5010120;28;20049;-68
2024/02/15 02:18:10;;;;;;;12.07;5.00;;;;;;;;;;5009276;28;20058;-67
2024/02/15 02:20:37;;;;;;;11.90;5.35;;;;;;;;;;5016502;28;20066;-66
2024/02/15 02:23:09;;;;;;;11.98;5.32;;;;;;;;;;5015437;28;20050;-66
2024/02/15 02:25:38;;;;;;;15.02;5.60;;;;;;;;;;5024176;28;20063;-66
2024/02/15 02:28:04;;;;;;;;;;;;;;;;;;5033633;28;20057;-68
2024/02/15 02:30:32;;;;;;;15.45;5.15;;;;;;;;;;5051753;28;19929;-65
2024/02/15 02:32:59;;;;;;;16.88;5.70;;;;;;;;;;5029636;28;20056;-66
2024/02/15 02:35:26;;;;;;;15.05;5.78;;;;;;;;;;5030474;28;20057;-67
2024/02/15 02:37:54;;;;;;;11.73;5.43;;;;;;;;;;5033236;28;20056;-66
2024/02/15 02:40:21;;;;;;;14.05;5.85;;;;;;;;;;5036439;28;20049;-67
2024/02/15 02:42:51;;;;;;;15.48;5.68;;;;;;;;;;5039356;28;20139;-67
2024/02/15 02:45:19;;;;;;;16.80;6.13;;;;;;;;;;5030800;28;20048;-66
2024/02/15 02:47:46;;;;;;;14.50;5.28;;;;;;;;;;5032784;28;20151;-69
2024/02/15 02:50:13;;;;;;;17.15;6.50;;;;;;;;;;5036699;28;20057;-68
2024/02/15 02:52:40;;;;;;;21.77;7.82;;;;;;;;;;5034589;28;20083;-67
2024/02/15 02:55:08;;;;;;;21.33;7.18;;;;;;;;;;5032314;28;20059;-68
2024/02/15 02:57:37;;;;;;;17.52;6.63;;;;;;;;;;5034249;28;20063;-67
2024/02/15 03:00:07;;;;;;;;;;;;;;;;;;5029427;28;20063;-68
2024/02/15 03:02:35;;;;;;;16.83;6.13;;;;;;;;;;5035513;28;19935;-69
2024/02/15 03:05:03;;;;;;;15.05;6.55;;;;;;;;;;5004342;28;20175;-68
2024/02/15 03:07:33;;;;;;;15.25;6.53;;;;;;;;;;5033145;28;20071;-65
2024/02/15 03:10:00;;;;;;;14.75;6.13;;;;;;;;;;5027928;28;20303;-68
2024/02/15 03:12:29;;;;;;;14.85;6.18;;;;;;;;;;5033942;28;20057;-67
2024/02/15 03:14:56;;;;;;;17.83;6.10;;;;;;;;;;5032972;28;20057;-69
2024/02/15 03:17:25;;;;;;;16.42;5.72;;;;;;;;;;5034932;28;20053;-65
2024/02/15 03:19:52;;;;;;;13.07;5.55;;;;;;;;;;5030300;28;20055;-68
2024/02/15 03:22:19;;;;;;;13.68;4.75;;;;;;;;;;5034746;28;20060;-67
2024/02/15 03:24:46;;;;;;;12.88;5.47;;;;;;;;;;5027930;28;20059;-67
2024/02/15 03:27:13;;;;;;;10.23;4.63;;;;;;;;;;5036601;28;20057;-68
2024/02/15 03:29:40;;;;;;;12.40;5.03;;;;;;;;;;5035671;28;20061;-68
2024/02/15 03:32:10;;;;;;;15.00;5.28;;;;;;;;;;5030850;28;20163;-69
2024/02/15 03:34:39;;;;;;;11.65;4.22;;;;;;;;;;5028289;28;20076;-69
2024/02/15 03:37:06;;;;;;;10.80;4.65;;;;;;;;;;5036234;28;20134;-68
2024/02/15 03:39:33;;;;;;;11.18;4.38;;;;;;;;;;5035715;28;20140;-67
2024/02/15 03:42:00;;;;;;;10.57;4.65;;;;;;;;;;5027376;28;20258;-66
2024/02/15 03:44:27;;;;;;;9.93;4.45;;;;;;;;;;5035312;28;20055;-69
2024/02/15 03:46:55;;;;;;;9.23;3.70;;;;;;;;;;5040026;28;20060;-69
2024/02/15 03:49:22;;;;;;;12.70;4.10;;;;;;;;;;5044172;28;20045;-66
2024/02/15 03:51:54;;;;;;;10.10;3.92;;;;;;;;;;5032979;28;20115;-68
2024/02/15 03:54:23;;;;;;;12.18;4.13;;;;;;;;;;5034845;28;20064;-68
2024/02/15 03:56:52;;;;;;;9.57;3.67;;;;;;;;;;5031414;28;20057;-66
2024/02/15 03:59:24;;;;;;;11.57;3.83;;;;;;;;;;5039540;28;20053;-64
2024/02/15 04:01:51;;;;;;;10.60;3.88;;;;;;;;;;5030606;28;20128;-66
2024/02/15 04:04:20;;;;;;;8.60;3.72;;;;;;;;;;5030795;28;20152;-68
2024/02/15 04:06:47;;;;;;;13.02;3.60;;;;;;;;;;5039035;28;20081;-70
2024/02/15 04:09:17;;;;;;;10.68;4.00;;;;;;;;;;5040820;28;20148;-66
2024/02/15 04:11:44;;;;;;;10.45;3.75;;;;;;;;;;5037173;28;20055;-65
2024/02/15 04:14:11;;;;;;;10.68;3.67;;;;;;;;;;5021878;28;20057;-70
2024/02/15 04:16:37;;;;;;;16.58;4.57;;;;;;;;;;5019985;28;20060;-67
2024/02/15 04:19:04;;;;;;;11.82;3.30;;;;;;;;;;5016021;28;20049;-67
2024/02/15 04:21:31;;;;;;;14.00;3.33;;;;;;;;;;5018074;28;20119;-66
2024/02/15 04:23:59;;;;;;;10.95;3.50;;;;;;;;;;5014546;28;20053;-65
2024/02/15 04:26:29;;;;;;;12.63;3.72;;;;;;;;;;5037117;28;20081;-65
2024/02/15 04:28:56;;;;;;;12.32;3.92;;;;;;;;;;5037693;28;20164;-72
2024/02/15 04:31:26;;;;;;;8.90;3.45;;;;;;;;;;5036477;28;20053;-65
2024/02/15 04:33:53;;;;;;;10.25;4.18;;;;;;;;;;5025714;28;20064;-67
2024/02/15 04:36:23;;;;;;;12.90;4.22;;;;;;;;;;5033531;28;20057;-66
2024/02/15 04:38:51;;;;;;;10.68;3.92;;;;;;;;;;5027716;28;20073;-67
2024/02/15 04:41:19;;;;;;;11.13;4.70;;;;;;;;;;5023390;28;20103;-64
2024/02/15 04:43:48;;;;;;;12.32;4.13;;;;;;;;;;5012079;28;20060;-66
2024/02/15 04:46:15;;;;;;;7.70;3.45;;;;;;;;;;5037359;28;20065;-65
2024/02/15 04:48:42;;;;;;;12.32;3.95;;;;;;;;;;5035596;28;20053;-68
2024/02/15 04:51:10;;;;;;;9.68;3.38;;;;;;;;;;5035482;28;20063;-67
2024/02/15 04:53:38;;;;;;;10.93;3.22;;;;;;;;;;5026262;28;20048;-67
2024/02/15 04:56:11;;;;;;;14.50;2.80;;;;;;;;;;5016093;28;20045;-66
2024/02/15 04:58:45;;;;;;;11.85;2.63;;;;;;;;;;5019051;28;20306;-67
2024/02/15 05:01:13;;;;;;;11.32;2.78;;;;;;;;;;5012481;28;20140;-67
2024/02/15 05:03:41;;;;;;;9.07;2.58;;;;;;;;;;5010683;28;20061;-66
2024/02/15 05:06:09;;;;;;;12.15;2.63;;;;;;;;;;5010143;28;20144;-67
2024/02/15 05:08:42;;;;;;;9.67;2.70;;;;;;;;;;5009140;28;20060;-67
2024/02/15 05:11:17;;;;;;;5.30;2.17;;;;;;;;;;5015106;28;20053;-68
2024/02/15 05:13:44;;;;;;;5.35;2.28;;;;;;;;;;5011329;28;20068;-65
2024/02/15 05:16:12;;;;;;;8.17;2.87;;;;;;;;;;5011786;28;20045;-64
2024/02/15 05:18:39;;;;;;;9.65;2.40;;;;;;;;;;5013822;28;20054;-65
2024/02/15 05:21:09;;;;;;;6.15;2.55;;;;;;;;;;5017021;28;20068;-66
2024/02/15 05:23:36;;;;;;;7.80;2.50;;;;;;;;;;5003621;28;20057;-64
2024/02/15 05:26:04;;;;;;;7.03;2.33;;;;;;;;;;5007598;28;20053;-66
2024/02/15 05:28:31;;;;;;;13.00;2.43;;;;;;;;;;5013738;28;20146;-69
2024/02/15 05:31:17;;;;;;;5.82;2.30;;;;;;;;;;5011204;28;20058;-65
2024/02/15 05:33:44;;;;;;;8.00;2.30;;;;;;;;;;4993309;28;20079;-68
2024/02/15 05:36:19;;;;;;;9.60;3.17;;;;;;;;;;5036762;28;20107;-68
2024/02/15 05:38:47;;;;;;;5.85;2.33;;;;;;;;;;5035518;28;20055;-66
2024/02/15 05:41:19;;;;;;;4.85;1.77;;;;;;;;;;5036815;28;20064;-68
2024/02/15 05:43:48;;;;;;;7.75;2.25;;;;;;;;;;5028550;28;20149;-68
2024/02/15 05:46:16;;;;;;;;;;;;;;;;;;5036806;28;20055;-70
2024/02/15 05:48:43;;;;;;;6.30;1.92;;;;;;;;;;5034068;28;19925;-67
2024/02/15 05:51:10;;;;;;;9.85;2.13;;;;;;;;;;5036257;28;20056;-66
2024/02/15 05:53:38;;;;;;;6.18;2.25;;;;;;;;;;5027802;28;20134;-68
2024/02/15 05:56:07;;;;;;;7.90;2.53;;;;;;;;;;5038383;28;21688;-66
2024/02/15 05:58:34;;;;;;;7.20;2.55;;;;;;;;;;5036800;28;20070;-67
2024/02/15 06:01:02;;;;;;;8.02;2.80;;;;;;;;;;5035184;28;20060;-68
2024/02/15 06:03:32;;;;;;;14.90;3.80;;;;;;;;;;5029663;28;20052;-67
2024/02/15 06:06:01;;;;;;;7.15;2.95;;;;;;;;;;5034728;28;20067;-67
2024/02/15 06:08:29;;;;;;;12.85;2.92;;;;;;;;;;5035964;28;20151;-70
2024/02/15 06:10:56;;;;;;;11.87;2.70;;;;;;;;;;5035696;28;20227;-67
2024/02/15 06:13:24;;;;;;;13.02;2.80;;;;;;;;;;5033142;28;20284;-68
2024/02/15 06:15:53;;;;;;;10.80;2.57;;;;;;;;;;5025277;28;20049;-68
2024/02/15 06:18:24;;;;;;;12.13;3.17;;;;;;;;;;5036876;28;20056;-69
2024/02/15 06:20:52;;;;;;;12.35;2.58;;;;;;;;;;5038963;28;20052;-66
2024/02/15 06:23:19;;;;;;;11.00;2.83;;;;;;;;;;5046324;28;20068;-67
2024/02/15 06:25:47;;;;;;;8.07;3.35;;;;;;;;;;5010061;28;20046;-68
2024/02/15 06:28:19;;;;;;;13.15;3.60;;;;;;;;;;5017087;28;20060;-67
2024/02/15 06:41:44;;;;;;;6.20;2.33;;;;;;;;;;5028914;28;20107;-68
2024/02/15 06:44:11;;;;;;;8.75;2.50;;;;;;;;;;5024826;28;20053;-65
2024/02/15 06:46:41;;;;;;;7.82;2.25;;;;;;;;;;5028595;28;20052;-68
2024/02/15 06:49:08;;;;;;;9.27;2.58;;;;;;;;;;5025091;28;20136;-67
2024/02/15 06:51:40;;;;;;;6.93;2.40;;;;;;;;;;5028638;28;20057;-67
2024/02/15 06:54:06;;;;;;;6.65;2.10;;;;;;;;;;5020075;28;20761;-65
2024/02/15 06:56:37;;;;;;;8.65;2.13;;;;;;;;;;5026147;28;20065;-65
2024/02/15 06:59:04;;;;;;;5.88;1.98;;;;;;;;;;5032174;28;20140;-66
2024/02/15 07:01:32;;;;;;;5.22;2.15;;;;;;;;;;5019537;28;20076;-66
2024/02/15 07:03:59;;;;;;;8.32;1.90;;;;;;;;;;5005773;28;20078;-66
2024/02/15 07:06:27;;;;;;;8.65;2.20;;;;;;;;;;5034435;28;20085;-69
2024/02/15 07:08:57;;;;;;;3.50;1.85;;;;;;;;;;5033661;28;20053;-68
2024/02/15 07:11:24;;;;;;;6.68;2.22;;;;;;;;;;5014798;28;20080;-70
2024/02/15 07:13:53;;;;;;;4.22;2.13;;;;;;;;;;5007715;28;20056;-67
2024/02/15 07:16:19;;;;;;;6.65;1.77;;;;;;;;;;5024049;28;20155;-69
2024/02/15 07:18:48;;;;;;;5.28;2.03;;;;;;;;;;5036363;28;20159;-64
2024/02/15 07:21:16;;;;;;;6.15;1.67;;;;;;;;;;5036379;28;20167;-65
2024/02/15 07:23:44;;;;;;;5.80;2.20;;;;;;;;;;5026618;28;20084;-65
2024/02/15 07:26:14;;;;;;;4.03;1.83;;;;;;;;;;5013493;28;20123;-67
2024/02/15 07:28:41;;;;;;;9.07;2.20;;;;;;;;;;5017061;28;20063;-66
2024/02/15 07:31:09;;;;;;;10.35;2.22;;;;;;;;;;5016507;28;20121;-66
2024/02/15 07:33:37;;;;;;;7.75;1.77;;;;;;;;;;5010222;28;20164;-65
2024/02/15 07:36:04;;;;;;;7.57;2.00;;;;;;;;;;5027112;28;20076;-65
2024/02/15 07:38:34;;;;;;;7.93;1.88;;;;;;;;;;5030470;28;20061;-66
2024/02/15 07:41:01;;;;;;;5.95;1.98;;;;;;;;;;5034469;28;20063;-63
2024/02/15 07:43:29;;;;;;;4.82;2.13;;;;;;;;;;5024817;28;20049;-63
2024/02/15 07:45:56;;;;;;;5.30;1.73;;;;;;;;;;5029125;28;20081;-67
2024/02/15 07:48:23;;;;;;;4.07;1.60;;;;;;;;;;5035197;28;20069;-66
2024/02/15 07:50:50;;;;;;;7.15;2.15;;;;;;;;;;5020423;28;20053;-66
2024/02/15 07:53:20;;;;;;;5.72;1.95;;;;;;;;;;5026791;28;20057;-65
2024/02/15 07:55:48;;;;;;;5.68;1.95;;;;;;;;;;5009353;28;20057;-65
2024/02/15 07:58:18;;;;;;;6.40;1.92;;;;;;;;;;5021651;28;20057;-66
2024/02/15 08:00:46;;;;;;;5.78;1.58;;;;;;;;;;5016221;28;20056;-66
2024/02/15 08:03:14;;;;;;;4.90;1.80;;;;;;;;;;5015077;28;20143;-66
2024/02/15 08:05:41;;;;;;;5.63;2.00;;;;;;;;;;5022616;28;20064;-65
2024/02/15 08:08:08;;;;;;;4.53;1.50;;;;;;;;;;5034280;28;20085;-66
2024/02/15 08:10:35;;;;;;;5.68;1.75;;;;;;;;;;5037193;28;20055;-66
2024/02/15 08:13:02;;;;;;;3.38;1.67;;;;;;;;;;5034366;28;20134;-66
2024/02/15 08:15:28;;;;;;;4.25;1.83;;;;;;;;;;5014010;28;20049;-64
2024/02/15 08:17:57;;;;;;;4.75;1.70;;;;;;;;;;5010188;28;20057;-67
2024/02/15 08:20:24;;;;;;;;;;;;;;;;;;5017610;28;20075;-66
2024/02/15 08:22:51;;;;;;;3.97;1.83;;;;;;;;;;5050203;28;19925;-65
2024/02/15 08:25:18;;;;;;;4.55;1.77;;;;;;;;;;5026089;28;20053;-64
2024/02/15 08:27:51;;;;;;;4.28;1.63;;;;;;;;;;5033847;28;20053;-64
2024/02/15 08:30:19;;;;;;;4.35;1.60;;;;;;;;;;5034232;28;20198;-66
2024/02/15 08:32:47;;;;;;;4.63;1.63;;;;;;;;;;5026527;28;20057;-67
2024/02/15 08:35:16;;;;;;;6.57;2.15;;;;;;;;;;5032770;28;20048;-66
2024/02/15 08:37:47;;;;;;;;;;;;;;;;;;5027361;28;20061;-65
2024/02/15 08:40:15;;;;;;;4.13;1.83;;;;;;;;;;5028710;28;19929;-66
2024/02/15 08:42:42;;;;;;;5.40;2.05;;;;;;;;;;5025162;28;20054;-66
2024/02/15 08:45:13;;;;;;;6.23;1.73;;;;;;;;;;5030862;28;20056;-65
2024/02/15 08:47:42;;;;;;;4.10;1.70;;;;;;;;;;5026483;28;20115;-64
2024/02/15 08:50:11;;;;;;;3.47;1.67;;;;;;;;;;5021488;28;20057;-64
2024/02/15 08:52:40;;;;;;;6.18;2.20;;;;;;;;;;5023213;28;20119;-66
2024/02/15 08:55:09;;;;;;;3.95;1.67;;;;;;;;;;5018428;28;20195;-64
2024/02/15 08:57:36;;;;;;;6.15;1.55;;;;;;;;;;5027387;28;20041;-66
2024/02/15 09:00:09;;;;;;;5.13;2.15;;;;;;;;;;5026509;28;20262;-64
2024/02/15 09:02:36;;;;;;;6.95;2.72;;;;;;;;;;5026039;28;20166;-63
2024/02/15 09:05:03;;;;;;;5.95;2.65;;;;;;;;;;5025142;28;20095;-66
2024/02/15 09:07:33;;;;;;;7.05;2.35;;;;;;;;;;5035656;28;20057;-63
2024/02/15 09:10:01;;;;;;;8.25;3.25;;;;;;;;;;5021894;28;20328;-63
2024/02/15 09:12:28;;;;;;;7.80;3.38;;;;;;;;;;5032177;28;20060;-64
2024/02/15 09:14:55;;;;;;;8.77;3.40;;;;;;;;;;5046570;28;20073;-65
2024/02/15 09:17:22;;;;;;;5.82;2.78;;;;;;;;;;5056381;28;20077;-64
2024/02/15 09:19:50;;;;;;;4.82;2.05;;;;;;;;;;5021756;28;20053;-67
2024/02/15 09:22:16;;;;;;;4.30;1.90;;;;;;;;;;5030241;28;20068;-66
2024/02/15 09:24:43;;;;;;;3.33;1.85;;;;;;;;;;5013445;28;20045;-65
2024/02/15 09:27:12;;;;;;;3.95;1.90;;;;;;;;;;5033905;28;20076;-67
2024/02/15 09:29:40;;;;;;;6.53;2.15;;;;;;;;;;5027252;28;20053;-64
2024/02/15 09:32:07;;;;;;;6.32;1.67;;;;;;;;;;5033449;28;20083;-65
2024/02/15 09:34:34;;;;;;;4.65;1.75;;;;;;;;;;5031419;28;20065;-65
2024/02/15 09:37:01;;;;;;;4.65;2.05;;;;;;;;;;5034404;28;20131;-64
2024/02/15 09:39:28;;;;;;;4.32;2.05;;;;;;;;;;5035857;28;20055;-66
2024/02/15 09:41:58;;;;;;;6.80;1.70;;;;;;;;;;5030427;28;20045;-67
2024/02/15 09:44:28;;;;;;;5.80;1.73;;;;;;;;;;5035113;28;20077;-65
2024/02/15 09:47:08;;;;;;;11.48;2.90;;;;;;;;;;5030114;28;20069;-66
2024/02/15 09:49:39;;;;;;;9.27;3.08;;;;;;;;;;5033840;28;20060;-64
2024/02/15 09:52:11;;;;;;;7.45;2.10;;;;;;;;;;5027703;28;20119;-65
2024/02/15 09:54:40;;;;;;;4.60;1.88;;;;;;;;;;5021952;28;20152;-66
2024/02/15 09:57:09;;;;;;;8.02;2.55;;;;;;;;;;5027718;28;20254;-67
2024/02/15 09:59:38;;;;;;;3.30;1.83;;;;;;;;;;5037062;28;20049;-65
2024/02/15 10:02:10;;;;;;;6.97;2.60;;;;;;;;;;5021424;28;20060;-67
2024/02/15 10:04:38;;;;;;;11.48;5.25;;;;;;;;;;5028544;28;20053;-65
2024/02/15 10:07:08;;;;;;;15.45;5.07;;;;;;;;;;5030325;28;20075;-67
2024/02/15 10:09:37;;;;;;;7.50;2.67;;;;;;;;;;5036717;28;20056;-66
2024/02/15 10:12:09;;;;;;;9.30;2.33;;;;;;;;;;5027496;28;20187;-68
2024/02/15 10:14:38;;;;;;;7.78;3.20;;;;;;;;;;5029360;28;20063;-66
2024/02/15 10:17:09;;;;;;;11.95;3.53;;;;;;;;;;5047660;28;20065;-66
2024/02/15 10:19:36;;;;;;;6.55;2.75;;;;;;;;;;5029323;28;20057;-64
2024/02/15 10:22:08;;;;;;;7.45;2.75;;;;;;;;;;5017701;28;20097;-68
2024/02/15 10:24:36;;;;;;;8.25;2.90;;;;;;;;;;5024345;28;20044;-64
2024/02/15 10:27:06;;;;;;;12.32;2.75;;;;;;;;;;5034556;28;20045;-67
2024/02/15 10:29:33;;;;;;;6.38;2.13;;;;;;;;;;5031791;28;20102;-66
2024/02/15 10:32:04;;;;;;;7.65;3.40;;;;;;;;;;5029632;28;20076;-68
2024/02/15 10:34:33;;;;;;;10.02;3.20;;;;;;;;;;5023240;28;20055;-68
2024/02/15 10:37:12;;;;;;;7.78;2.90;;;;;;;;;;5034128;28;20067;-68
2024/02/15 10:39:40;;;;;;;12.25;3.30;;;;;;;;;;5029474;28;20116;-67
2024/02/15 10:42:12;;;;;;;8.20;3.58;;;;;;;;;;5028278;28;20052;-65
2024/02/15 10:44:40;;;;;;;9.13;3.47;;;;;;;;;;5020792;28;20132;-66
2024/02/15 10:47:12;;;;;;;9.57;3.97;;;;;;;;;;5030418;28;20045;-65
2024/02/15 10:49:41;;;;;;;16.10;4.00;;;;;;;;;;5032007;28;20148;-65
2024/02/15 10:52:14;;;;;;;12.07;3.95;;;;;;;;;;5028049;28;20087;-67
2024/02/15 10:54:48;;;;;;;9.05;3.47;;;;;;;;;;5029064;28;20102;-67
2024/02/15 10:57:18;;;;;;;5.78;2.67;;;;;;;;;;5020993;28;20049;-67
2024/02/15 10:59:57;;;;;;;7.15;2.80;;;;;;;;;;5024450;28;20136;-66
2024/02/15 11:02:40;;;;;;;4.82;2.28;;;;;;;;;;5030832;28;20072;-66
2024/02/15 11:05:14;;;;;;;8.82;2.63;;;;;;;;;;5048540;28;20061;-67
2024/02/15 11:07:44;;;;;;;9.30;2.58;;;;;;;;;;5030962;28;20049;-68
2024/02/15 11:10:16;;;;;;;6.88;2.53;;;;;;;;;;5031593;28;20117;-66
2024/02/15 11:12:44;;;;;;;8.15;2.88;;;;;;;;;;5029870;28;20060;-66
2024/02/15 11:15:12;;;;;;;7.50;2.80;;;;;;;;;;5029265;28;20078;-65
2024/02/15 11:17:53;;;;;;;15.77;3.60;;;;;;;;;;5028225;28;20304;-67
2024/02/15 11:20:50;;;;;;;13.23;4.32;;;;;;;;;;5022640;28;20057;-69
2024/02/15 11:23:28;;;;;;;11.40;4.32;;;;;;;;;;5033992;28;20045;-68
2024/02/15 11:25:59;;;;;;;8.65;3.97;;;;;;;;;;5028293;28;20070;-67
2024/02/15 11:28:50;;;;;;;7.10;3.25;;;;;;;;;;5029100;28;20077;-65
2024/02/15 11:31:55;;;;;;;15.10;3.28;;;;;;;;;;4783518;28;2267623;-69
2024/02/15 11:34:50;;;;;;;8.25;2.80;;;;;;;;;;4972455;28;20144;-68
2024/02/15 11:37:53;;;;;;;6.28;2.40;;;;;;;;;;4975733;28;20212;-65
2024/02/15 11:40:24;;;;;;;12.60;2.78;;;;;;;;;;5023424;28;20145;-67
2024/02/15 11:42:50;;;;;;;9.38;2.50;;;;;;;;;;5010684;28;20075;-66
2024/02/15 11:45:21;;;;;;;7.55;2.50;;;;;;;;;;5007194;28;20059;-66
2024/02/15 11:47:52;;;;;;;9.35;2.35;;;;;;;;;;5010428;28;20049;-71
2024/02/15 11:50:22;;;;;;;5.57;2.10;;;;;;;;;;5013657;28;20081;-67
2024/02/15 11:52:50;;;;;;;4.93;1.98;;;;;;;;;;5012788;28;20144;-68
2024/02/15 11:55:20;;;;;;;7.47;2.22;;;;;;;;;;5006748;28;20212;-67
2024/02/15 11:58:17;;;;;;;5.25;2.05;;;;;;;;;;5002265;28;20057;-68
2024/02/15 12:20:06;;;;;;;10.82;2.30;;;;;;;;;;5011218;28;20061;-69
2024/02/15 12:22:40;;;;;;;5.35;2.22;;;;;;;;;;5019263;28;20067;-65
2024/02/15 12:25:13;;;;;;;11.77;3.55;;;;;;;;;;5013244;28;20054;-67
2024/02/15 12:27:42;;;;;;;10.18;3.65;;;;;;;;;;5009413;28;20140;-67
2024/02/15 12:30:15;;;;;;;14.52;4.82;;;;;;;;;;5010857;28;20092;-68
2024/02/15 12:32:42;;;;;;;10.40;3.53;;;;;;;;;;5017067;28;20132;-65
2024/02/15 12:35:16;;;;;;;8.88;3.53;;;;;;;;;;5005269;28;20053;-65
2024/02/15 12:37:45;;;;;;;11.43;3.38;;;;;;;;;;5013686;28;20091;-68
2024/02/15 12:40:15;;;;;;;;;;;;;;;;;;5018071;28;20123;-69
2024/02/15 12:42:43;;;;;;;10.88;2.63;;;;;;;;;;5006826;28;19925;-65
2024/02/15 12:45:20;;;;;;;7.40;2.30;;;;;;;;;;5004316;28;20067;-65
2024/02/15 12:47:49;;;;;;;5.00;2.28;;;;;;;;;;5008912;28;20065;-70
2024/02/15 12:50:19;;;;;;;7.13;2.65;;;;;;;;;;5008651;28;20172;-66
2024/02/15 12:52:49;;;;;;;5.20;2.10;;;;;;;;;;5017965;28;20111;-68
2024/02/15 12:55:17;;;;;;;8.32;2.45;;;;;;;;;;5001469;28;20049;-67
2024/02/15 12:57:47;;;;;;;;;;;;;;;;;;5015222;28;20073;-69
2024/02/15 13:00:20;;;;;;;6.75;2.53;;;;;;;;;;5018943;28;19952;-69
2024/02/15 13:02:48;;;;;;;9.05;2.75;;;;;;;;;;5016482;28;20123;-67
2024/02/15 13:05:18;;;;;;;8.52;2.35;;;;;;;;;;5005640;28;20065;-67
2024/02/15 13:07:47;;;;;;;5.80;2.22;;;;;;;;;;5005476;28;20049;-69
2024/02/15 13:10:14;;;;;;;8.77;3.00;;;;;;;;;;5018683;28;20049;-69
2024/02/15 13:12:43;;;;;;;11.40;3.40;;;;;;;;;;5010306;28;20084;-69
2024/02/15 13:15:14;;;;;;;7.75;3.40;;;;;;;;;;4999952;28;20048;-70
2024/02/15 13:17:44;;;;;;;9.80;2.35;;;;;;;;;;5035218;28;20053;-68
2024/02/15 13:20:13;;;;;;;7.45;2.20;;;;;;;;;;5016264;28;20119;-68
2024/02/15 13:22:43;;;;;;;6.20;2.20;;;;;;;;;;5015093;28;20136;-66
2024/02/15 13:25:12;;;;;;;8.65;2.42;;;;;;;;;;4951029;28;20054;-67
2024/02/15 13:27:41;;;;;;;6.13;2.33;;;;;;;;;;4988703;28;20065;-68
2024/02/15 13:30:09;;;;;;;4.55;2.00;;;;;;;;;;4984972;28;20058;-69
2024/02/15 13:32:37;;;;;;;7.93;2.28;;;;;;;;;;4991378;28;20081;-66
2024/02/15 13:35:12;;;;;;;;;;;;;;;;;;4969718;28;20049;-67
2024/02/15 13:37:43;;;;;;;6.63;2.13;;;;;;;;;;4987998;28;19952;-68
2024/02/15 13:40:15;;;;;;;5.35;1.88;;;;;;;;;;4991071;28;20076;-67
2024/02/15 13:42:46;;;;;;;6.70;2.67;;;;;;;;;;4985937;28;20050;-67
2024/02/15 13:45:14;;;;;;;10.43;2.65;;;;;;;;;;4983985;28;20050;-70
2024/02/15 13:47:41;;;;;;;5.95;2.30;;;;;;;;;;4986756;28;20061;-68
2024/02/15 13:50:14;;;;;;;8.73;2.25;;;;;;;;;;4992938;28;20054;-66
2024/02/15 13:52:43;;;;;;;5.15;2.22;;;;;;;;;;4991605;28;20049;-65
2024/02/15 13:55:22;;;;;;;6.57;1.98;;;;;;;;;;4966295;28;20076;-68
2024/02/15 13:57:51;;;;;;;5.95;1.85;;;;;;;;;;4975308;28;20058;-66
2024/02/15 14:00:29;;;;;;;10.45;2.08;;;;;;;;;;4978352;28;20058;-68
2024/02/15 14:02:57;;;;;;;12.00;2.67;;;;;;;;;;4976735;28;20062;-69
2024/02/15 14:05:27;;;;;;;6.72;2.05;;;;;;;;;;4998632;28;20165;-68
2024/02/15 14:07:56;;;;;;;5.00;2.17;;;;;;;;;;5011322;28;20079;-68
2024/02/15 14:10:26;;;;;;;;;;;;;;;;;;5015706;28;20075;-68
2024/02/15 14:12:55;;;;;;;6.93;1.90;;;;;;;;;;5015252;28;19931;-68
2024/02/15 14:15:25;;;;;;;5.25;2.33;;;;;;;;;;5003838;28;20060;-67
2024/02/15 14:17:53;;;;;;;5.67;2.57;;;;;;;;;;4993506;28;20045;-66
2024/02/15 14:20:23;;;;;;;11.55;2.92;;;;;;;;;;5012225;28;20300;-68
2024/02/15 14:22:55;;;;;;;13.25;2.63;;;;;;;;;;5015072;28;20059;-67
2024/02/15 14:25:25;;;;;;;10.18;2.60;;;;;;;;;;5004376;28;20058;-65
2024/02/15 14:27:56;;;;;;;6.68;2.53;;;;;;;;;;5000444;28;20061;-67
2024/02/15 14:33:11;;;;;;;5.32;2.30;;;;;;;;;;5009435;28;20076;-68
2024/02/15 14:35:44;;;;;;;13.13;2.40;;;;;;;;;;4952457;28;20061;-68
2024/02/15 14:38:12;;;;;;;6.13;2.60;;;;;;;;;;4984671;28;20058;-69
2024/02/15 14:40:42;;;;;;;6.70;2.25;;;;;;;;;;4982851;28;20050;-67
2024/02/15 14:46:01;;;;;;;13.18;2.83;;;;;;;;;;4967214;28;20071;-66
2024/02/15 14:48:30;;;;;;;8.65;2.60;;;;;;;;;;4994526;28;20093;-68
2024/02/15 14:51:03;;;;;;;9.38;3.05;;;;;;;;;;4998671;28;20065;-68
2024/02/15 14:53:33;;;;;;;9.88;2.92;;;;;;;;;;4990465;28;20054;-67
2024/02/15 14:56:04;;;;;;;7.07;3.08;;;;;;;;;;4975454;28;20133;-65
2024/02/15 14:58:31;;;;;;;13.48;3.20;;;;;;;;;;4988505;28;20140;-69
2024/02/15 15:01:01;;;;;;;10.55;4.30;;;;;;;;;;4989430;28;20057;-71
2024/02/15 15:03:37;;;;;;;14.07;3.58;;;;;;;;;;4990026;28;20265;-68
2024/02/15 15:14:22;;;;;;;;;;;;;;;;;;4982499;28;20072;-72
2024/02/15 15:16:50;;;;;;;10.07;2.78;;;;;;;;;;5009542;28;19925;-75
2024/02/15 15:19:17;;;;;;;12.17;3.47;;;;;;;;;;4998460;28;20054;-72
2024/02/15 15:21:53;;;;;;;16.58;8.75;;;;;;;;;;4991929;28;20354;-78
2024/02/15 15:24:20;;;;;;;12.95;5.20;;;;;;;;;;4964264;28;20050;-74
2024/02/15 15:26:49;;;;;;;13.88;4.38;;;;;;;;;;5007366;28;20085;-71
2024/02/15 15:29:17;;;;;;;10.82;4.00;;;;;;;;;;5019138;28;20099;-71
2024/02/15 15:31:48;;;;;;;14.25;3.90;;;;;;;;;;5012138;28;20042;-79
2024/02/15 15:34:21;;;;;;;19.25;3.95;;;;;;;;;;5011397;28;20061;-80
2024/02/15 15:36:48;;;;;;;20.52;3.60;;;;;;;;;;5015670;28;20045;-72